createdAt,value
2023-05-12T03:45:30.966Z,2.60
2023-05-12T03:47:57.632Z,2.28
2023-05-12T03:50:24.328Z,2.55
2023-05-12T03:52:55.755Z,2.72
2023-05-12T03:55:22.809Z,3.20
2023-05-12T03:57:50.100Z,3.15
2023-05-12T04:00:17.349Z,3.03
2023-05-12T04:02:44.357Z,3.15
2023-05-12T04:05:11.234Z,3.67
2023-05-12T04:07:38.281Z,2.95
2023-05-12T04:10:05.350Z,2.97
2023-05-12T04:12:31.998Z,3.17
2023-05-12T04:14:59.204Z,3.08
2023-05-12T04:17:25.879Z,3.05
2023-05-12T04:19:53.384Z,3.15
2023-05-12T04:22:20.047Z,3.35
2023-05-12T04:24:46.699Z,2.97
2023-05-12T04:27:13.448Z,2.72
2023-05-12T04:29:40.130Z,3.30
2023-05-12T04:32:07.165Z,4.07
2023-05-12T04:34:34.325Z,3.75
2023-05-12T04:37:01.134Z,4.40
2023-05-12T04:39:30.793Z,4.53
2023-05-12T04:41:57.583Z,4.40
2023-05-12T04:44:24.221Z,4.25
2023-05-12T04:46:53.425Z,4.43
2023-05-12T04:49:20.131Z,4.28
2023-05-12T04:51:46.812Z,4.50
2023-05-12T04:54:13.496Z,4.20
2023-05-12T04:56:40.113Z,5.18
2023-05-12T04:59:07.063Z,4.43
2023-05-12T05:01:33.902Z,4.20
2023-05-12T05:04:00.858Z,4.35
2023-05-12T05:06:28.299Z,4.20
2023-05-12T05:08:55.831Z,4.60
2023-05-12T05:11:22.915Z,4.47
2023-05-12T05:13:49.627Z,4.70
2023-05-12T05:16:16.331Z,4.47
2023-05-12T05:18:46.406Z,4.60
2023-05-12T05:21:14.431Z,4.53
2023-05-12T05:23:41.942Z,4.10
2023-05-12T05:26:09.177Z,4.22
2023-05-12T05:28:36.565Z,4.03
2023-05-12T05:31:03.326Z,4.15
2023-05-12T05:33:30.036Z,3.38
2023-05-12T05:35:56.804Z,4.03
2023-05-12T05:38:23.460Z,3.15
2023-05-12T05:40:53.713Z,3.03
2023-05-12T05:43:21.148Z,2.40
2023-05-12T05:45:49.619Z,3.00
2023-05-12T05:48:16.326Z,2.55
2023-05-12T05:50:43.440Z,2.75
2023-05-12T05:53:10.260Z,2.65
2023-05-12T05:55:36.889Z,3.08
2023-05-12T05:58:03.638Z,2.67
2023-05-12T06:00:30.360Z,2.88
2023-05-12T06:02:57.055Z,2.80
2023-05-12T06:05:23.764Z,2.78
2023-05-12T06:07:50.450Z,2.60
2023-05-12T06:10:17.236Z,2.70
2023-05-12T06:12:43.999Z,2.75
2023-05-12T06:15:11.226Z,2.40
2023-05-12T06:17:38.427Z,2.88
2023-05-12T06:20:06.546Z,2.65
2023-05-12T06:22:34.699Z,2.63
2023-05-12T06:25:02.109Z,2.30
2023-05-12T06:27:28.744Z,2.30
2023-05-12T06:29:55.438Z,2.70
2023-05-12T06:32:22.087Z,2.50
2023-05-12T06:34:48.843Z,2.83
2023-05-12T06:37:15.804Z,2.30
2023-05-12T06:39:42.446Z,2.60
2023-05-12T06:42:09.184Z,2.50
2023-05-12T06:44:35.799Z,2.72
2023-05-12T06:47:02.548Z,2.78
2023-05-12T06:49:29.275Z,2.38
2023-05-12T06:51:55.974Z,2.97
2023-05-12T06:54:22.629Z,2.33
2023-05-12T06:56:49.331Z,2.70
2023-05-12T06:59:16.069Z,2.30
2023-05-12T07:01:43.088Z,2.50
2023-05-12T07:04:09.908Z,3.08
2023-05-12T07:06:36.982Z,2.75
2023-05-12T07:09:04.131Z,2.65
2023-05-12T07:11:30.945Z,2.63
2023-05-12T07:13:57.594Z,2.47
2023-05-12T07:16:24.348Z,2.47
2023-05-12T07:18:51.237Z,2.20
2023-05-12T07:21:18.170Z,2.10
2023-05-12T07:23:44.958Z,2.10
2023-05-12T07:26:11.677Z,1.90
2023-05-12T07:28:38.385Z,2.30
2023-05-12T07:31:07.553Z,2.33
2023-05-12T07:33:35.463Z,2.55
2023-05-12T07:36:04.553Z,2.35
2023-05-12T07:38:31.985Z,1.80
2023-05-12T07:41:00.243Z,1.40
2023-05-12T07:43:26.982Z,2.38
2023-05-12T07:45:55.603Z,2.08
2023-05-12T07:48:22.381Z,2.80
2023-05-12T07:50:49.075Z,1.42
2023-05-12T07:53:15.701Z,1.33
2023-05-12T07:55:43.604Z,1.40
2023-05-12T07:58:11.526Z,1.50
2023-05-12T08:00:38.654Z,1.67
2023-05-12T08:03:06.531Z,1.60
2023-05-12T08:05:33.625Z,1.60
2023-05-12T08:08:00.367Z,1.75
2023-05-12T08:10:29.785Z,1.63
2023-05-12T08:12:56.648Z,1.85
2023-05-12T08:15:23.508Z,2.20
2023-05-12T08:17:50.172Z,2.42
2023-05-12T08:20:16.892Z,2.33
2023-05-12T08:22:44.522Z,2.60
2023-05-12T08:25:12.587Z,2.75
2023-05-12T08:27:39.551Z,2.33
2023-05-12T08:30:06.730Z,2.15
2023-05-12T08:32:33.455Z,2.03
2023-05-12T08:35:01.081Z,2.15
2023-05-12T08:37:27.957Z,2.15
2023-05-12T08:39:54.668Z,2.20
2023-05-12T08:43:01.589Z,2.15
2023-05-12T08:45:29.318Z,2.10
2023-05-12T08:47:58.600Z,1.70
2023-05-12T08:50:27.026Z,1.60
2023-05-12T08:52:53.880Z,1.50
2023-05-12T08:55:22.760Z,1.40
2023-05-12T08:57:51.418Z,1.48
2023-05-12T09:00:20.421Z,1.40
2023-05-12T09:02:53.862Z,1.63
2023-05-12T09:05:22.842Z,1.42
2023-05-12T09:07:51.517Z,1.48
2023-05-12T09:10:34.578Z,1.45
2023-05-12T09:13:29.026Z,1.10
2023-05-12T09:15:58.821Z,1.60
2023-05-12T09:18:25.563Z,1.45
2023-05-12T09:20:52.293Z,1.60
2023-05-12T09:23:22.000Z,1.48
2023-05-12T09:26:01.453Z,1.50
2023-05-12T09:28:38.524Z,1.20
2023-05-12T09:31:34.700Z,1.23
2023-05-12T09:34:06.535Z,1.10
2023-05-12T09:36:34.752Z,1.33
2023-05-12T09:39:07.047Z,1.27
2023-05-12T09:41:37.935Z,1.10
2023-05-12T09:44:05.715Z,1.40
2023-05-12T09:46:32.639Z,1.00
2023-05-12T09:48:59.555Z,1.00
2023-05-12T09:51:27.034Z,1.05
2023-05-12T09:53:53.821Z,0.70
2023-05-12T09:56:21.304Z,0.80
2023-05-12T09:59:02.238Z,0.60
2023-05-12T10:01:29.121Z,1.00
2023-05-12T10:03:57.617Z,0.47
2023-05-12T10:06:31.343Z,0.50
2023-05-12T10:09:06.605Z,0.60
2023-05-12T10:11:33.746Z,0.60
2023-05-12T10:14:00.936Z,0.50
2023-05-12T10:16:28.930Z,0.55
2023-05-12T10:18:56.581Z,0.63
2023-05-12T10:21:25.476Z,0.30
2023-05-12T10:23:54.084Z,0.47
2023-05-12T10:26:21.467Z,0.75
2023-05-12T10:28:48.882Z,0.90
2023-05-12T10:31:16.322Z,0.80
2023-05-12T10:33:43.101Z,0.65
2023-05-12T10:36:19.628Z,0.55
2023-05-12T10:38:49.774Z,0.60
2023-05-12T10:41:17.123Z,0.70
2023-05-12T10:43:48.863Z,1.00
2023-05-12T10:46:20.999Z,1.63
2023-05-12T10:49:04.209Z,1.80
2023-05-12T10:51:33.906Z,0.50
2023-05-12T10:54:09.767Z,0.50
2023-05-12T10:56:42.519Z,0.45
2023-05-12T10:59:18.274Z,0.40
2023-05-12T11:02:03.605Z,0.50
2023-05-12T11:04:53.556Z,0.40
2023-05-12T11:07:26.982Z,0.35
2023-05-12T11:09:59.230Z,0.50
2023-05-12T11:12:31.973Z,0.30
2023-05-12T11:15:04.127Z,0.50
2023-05-12T11:17:31.896Z,0.88
2023-05-12T11:20:00.408Z,0.82
2023-05-12T11:22:27.293Z,0.88
2023-05-12T11:24:54.108Z,0.73
2023-05-12T11:27:23.298Z,0.90
2023-05-12T11:30:01.321Z,0.80
2023-05-12T11:32:29.488Z,0.65
2023-05-12T11:34:56.486Z,0.77
2023-05-12T11:37:23.356Z,0.80
2023-05-12T11:39:50.125Z,0.80
2023-05-12T11:42:19.671Z,0.90
2023-05-12T11:44:48.859Z,0.90
2023-05-12T11:47:16.563Z,0.80
2023-05-12T11:49:46.241Z,0.63
2023-05-12T11:52:13.115Z,0.63
2023-05-12T11:54:40.020Z,1.23
2023-05-12T11:57:06.714Z,0.90
2023-05-12T11:59:35.278Z,0.70
2023-05-12T12:02:03.556Z,0.63
2023-05-12T12:04:40.619Z,0.80
2023-05-12T12:07:10.481Z,1.13
2023-05-12T12:09:40.590Z,0.65
2023-05-12T12:12:09.141Z,0.70
2023-05-12T12:14:38.047Z,0.90
2023-05-12T12:17:05.623Z,0.60
2023-05-12T12:19:32.509Z,0.40
2023-05-12T12:21:59.183Z,0.85
2023-05-12T12:24:26.304Z,0.65
2023-05-12T12:26:53.024Z,0.90
2023-05-12T12:29:19.837Z,0.70
2023-05-12T12:31:46.656Z,0.75
2023-05-12T12:34:13.496Z,0.60
2023-05-12T12:36:41.149Z,0.60
2023-05-12T12:39:08.010Z,0.75
2023-05-12T12:41:34.672Z,0.70
2023-05-12T12:44:01.354Z,0.60
2023-05-12T12:46:28.022Z,0.73
2023-05-12T12:48:54.725Z,0.68
2023-05-12T12:51:21.467Z,1.52
2023-05-12T12:53:48.280Z,1.10
2023-05-12T12:56:15.372Z,1.02
2023-05-12T12:58:42.005Z,1.02
2023-05-12T13:01:08.954Z,0.80
2023-05-12T13:03:35.794Z,1.15
2023-05-12T13:06:02.486Z,0.90
2023-05-12T13:08:29.474Z,1.08
2023-05-12T13:10:56.238Z,1.05
2023-05-12T13:13:24.434Z,1.20
2023-05-12T13:15:53.149Z,1.02
2023-05-12T13:18:20.725Z,1.92
2023-05-12T13:20:47.674Z,1.58
2023-05-12T13:23:14.559Z,1.70
2023-05-12T13:25:41.222Z,1.75
2023-05-12T13:28:08.361Z,1.52
2023-05-12T13:30:35.288Z,1.85
2023-05-12T13:33:04.408Z,1.90
2023-05-12T13:35:32.504Z,2.08
2023-05-12T13:37:59.238Z,2.63
2023-05-12T13:40:25.919Z,1.95
2023-05-12T13:42:52.536Z,1.70
2023-05-12T13:45:19.994Z,2.20
2023-05-12T13:47:46.788Z,1.85
2023-05-12T13:50:13.476Z,2.22
2023-05-12T13:52:40.218Z,1.40
2023-05-12T13:55:07.822Z,1.33
2023-05-12T13:57:34.460Z,1.40
2023-05-12T14:00:02.053Z,1.48
2023-05-12T14:02:28.750Z,1.85
2023-05-12T14:04:56.435Z,1.38
2023-05-12T14:07:23.126Z,1.80
2023-05-12T14:09:49.862Z,1.58
2023-05-12T14:12:17.080Z,1.80
2023-05-12T14:14:49.480Z,1.20
2023-05-12T14:17:17.111Z,1.30
2023-05-12T14:19:43.915Z,1.80
2023-05-12T14:22:22.392Z,1.67
2023-05-12T14:24:52.800Z,1.80
2023-05-12T14:27:19.932Z,2.65
2023-05-12T14:29:46.697Z,1.52
2023-05-12T14:32:13.572Z,1.70
2023-05-12T14:34:40.382Z,1.63
2023-05-12T14:37:07.015Z,1.50
2023-05-12T14:39:33.916Z,1.67
2023-05-12T14:42:00.543Z,1.70
2023-05-12T14:44:27.226Z,1.30
2023-05-12T14:46:53.885Z,1.77
2023-05-12T14:49:21.930Z,1.50
2023-05-12T14:51:49.581Z,0.88
2023-05-12T14:54:25.290Z,0.93
2023-05-12T14:56:52.941Z,0.52
2023-05-12T14:59:19.798Z,1.02
2023-05-12T15:01:46.619Z,0.55
2023-05-12T15:04:13.330Z,0.32
2023-05-12T15:06:40.179Z,0.57
2023-05-12T15:09:07.325Z,0.60
2023-05-12T15:11:34.071Z,0.38
2023-05-12T15:14:00.695Z,0.55
2023-05-12T15:16:28.146Z,0.60
2023-05-12T15:18:55.003Z,0.50
2023-05-12T15:21:21.803Z,0.40
2023-05-12T15:23:49.133Z,0.35
2023-05-12T15:26:31.945Z,0.50
2023-05-12T15:29:00.057Z,0.47
2023-05-12T15:31:29.562Z,0.30
2023-05-12T15:33:57.021Z,0.30
2023-05-12T15:36:23.756Z,0.70
2023-05-12T15:38:50.564Z,0.38
2023-05-12T15:41:17.356Z,0.10
2023-05-12T15:43:44.248Z,0.20
2023-05-12T15:46:11.779Z,0.20
2023-05-12T15:48:39.385Z,0.10
2023-05-12T15:51:07.198Z,0.20
2023-05-12T15:53:34.142Z,0.13
2023-05-12T15:56:02.009Z,0.10
2023-05-12T15:58:29.300Z,0.22
2023-05-12T16:00:56.200Z,0.30
2023-05-12T16:03:23.785Z,0.35
2023-05-12T16:05:51.212Z,0.20
2023-05-12T16:08:18.118Z,0.28
2023-05-12T16:10:44.850Z,0.20
2023-05-12T16:13:11.549Z,0.20
2023-05-12T16:15:38.263Z,0.35
2023-05-12T16:18:06.962Z,0.63
2023-05-12T16:20:35.419Z,0.40
2023-05-12T16:23:02.515Z,0.20
2023-05-12T16:25:29.265Z,0.40
2023-05-12T16:27:56.039Z,0.40
2023-05-12T16:30:22.825Z,1.48
2023-05-12T16:32:49.693Z,0.60
2023-05-12T16:35:16.528Z,0.60
2023-05-12T16:37:43.299Z,1.30
2023-05-12T16:40:10.375Z,0.25
2023-05-12T16:42:37.107Z,0.75
2023-05-12T16:45:03.948Z,0.30
2023-05-12T16:47:32.177Z,0.30
2023-05-12T16:49:59.317Z,0.30
2023-05-12T16:52:26.874Z,0.30
2023-05-12T16:54:55.586Z,0.52
2023-05-12T16:57:22.354Z,0.70
2023-05-12T16:59:49.443Z,0.60
2023-05-12T17:02:16.468Z,0.50
2023-05-12T17:04:43.539Z,0.70
2023-05-12T17:07:10.339Z,0.50
2023-05-12T17:09:37.295Z,0.70
2023-05-12T17:12:04.540Z,0.40
2023-05-12T17:14:31.527Z,0.70
2023-05-12T17:16:58.340Z,0.70
2023-05-12T17:19:25.077Z,0.50
2023-05-12T17:21:52.050Z,0.60
2023-05-12T17:24:18.875Z,0.57
2023-05-12T17:26:45.555Z,0.40
2023-05-12T17:29:12.349Z,0.70
2023-05-12T17:31:39.158Z,0.50
2023-05-12T17:34:05.918Z,0.70
2023-05-12T17:36:33.119Z,0.70
2023-05-12T17:39:00.004Z,0.70
2023-05-12T17:41:28.904Z,0.70
2023-05-12T17:43:56.017Z,0.73
2023-05-12T17:46:23.080Z,0.90
2023-05-12T17:48:50.107Z,1.05
2023-05-12T17:51:17.054Z,0.80
2023-05-12T17:53:43.884Z,1.00
2023-05-12T17:56:11.470Z,1.10
2023-05-12T17:58:38.516Z,0.90
2023-05-12T18:01:05.390Z,0.85
2023-05-12T18:03:32.266Z,0.90
2023-05-12T18:05:59.383Z,1.10
2023-05-12T18:08:27.217Z,1.10
2023-05-12T18:10:54.032Z,1.30
2023-05-12T18:13:20.786Z,1.50
2023-05-12T18:15:50.054Z,1.00
2023-05-12T18:18:16.951Z,1.33
2023-05-12T18:20:43.825Z,1.30
2023-05-12T18:23:10.658Z,1.35
2023-05-12T18:25:37.552Z,1.40
2023-05-12T18:28:06.472Z,1.30
2023-05-12T18:30:33.235Z,1.30
2023-05-12T18:33:00.089Z,1.15
2023-05-12T18:35:27.074Z,1.73
2023-05-12T18:37:53.839Z,1.45
2023-05-12T18:40:20.600Z,1.85
2023-05-12T18:42:47.364Z,1.92
2023-05-12T18:45:14.117Z,1.90
2023-05-12T18:47:41.304Z,2.20
2023-05-12T18:50:08.392Z,1.95
2023-05-12T18:52:35.496Z,2.00
2023-05-12T18:55:02.347Z,2.30
2023-05-12T18:57:29.099Z,1.90
2023-05-12T18:59:55.800Z,2.08
2023-05-12T19:02:23.966Z,2.15
2023-05-12T19:04:50.868Z,2.30
2023-05-12T19:07:17.720Z,2.42
2023-05-12T19:09:44.471Z,2.30
2023-05-12T19:12:11.732Z,2.10
2023-05-12T19:14:39.579Z,2.40
2023-05-12T19:17:07.087Z,2.75
2023-05-12T19:19:33.859Z,2.80
2023-05-12T19:22:00.692Z,2.72
2023-05-12T19:24:27.418Z,2.83
2023-05-12T19:26:54.075Z,3.08
2023-05-12T19:29:20.864Z,2.92
2023-05-12T19:31:47.774Z,2.65
2023-05-12T19:34:14.669Z,2.33
2023-05-12T19:36:41.460Z,2.75
2023-05-12T19:39:08.134Z,2.70
2023-05-12T19:41:34.850Z,3.25
2023-05-12T19:44:01.516Z,2.92
2023-05-12T19:46:29.415Z,2.88
2023-05-12T19:48:56.095Z,2.92
2023-05-12T19:51:22.780Z,3.00
2023-05-12T19:53:49.504Z,2.60
2023-05-12T19:56:16.444Z,2.75
2023-05-12T19:58:43.141Z,3.00
2023-05-12T20:01:12.183Z,2.65
2023-05-12T20:03:39.081Z,3.08
2023-05-12T20:06:06.095Z,2.72
2023-05-12T20:08:32.758Z,3.55
2023-05-12T20:10:59.400Z,3.40
2023-05-12T20:13:26.119Z,3.50
2023-05-12T20:15:52.892Z,3.30
2023-05-12T20:18:21.502Z,3.65
2023-05-12T20:20:48.334Z,3.42
2023-05-12T20:23:15.285Z,3.80
2023-05-12T20:25:42.270Z,4.07
2023-05-12T20:28:11.460Z,3.55
2023-05-12T20:30:38.523Z,3.53
2023-05-12T20:33:05.322Z,3.70
2023-05-12T20:35:32.347Z,3.65
2023-05-12T20:37:59.255Z,3.88
2023-05-12T20:40:26.004Z,6.85
2023-05-12T20:42:52.752Z,3.92
2023-05-12T20:45:19.894Z,7.63
2023-05-12T20:47:46.754Z,5.57
2023-05-12T20:50:13.621Z,4.32
2023-05-12T20:52:41.479Z,5.10
2023-05-12T20:55:09.230Z,5.13
2023-05-12T20:57:36.045Z,7.95
2023-05-12T21:00:03.906Z,4.70
2023-05-12T21:02:30.770Z,6.70
2023-05-12T21:04:57.585Z,6.18
2023-05-12T21:07:24.342Z,4.60
2023-05-12T21:09:51.176Z,4.38
2023-05-12T21:12:17.987Z,4.80
2023-05-12T21:14:45.319Z,4.60
2023-05-12T21:17:12.958Z,4.38
2023-05-12T21:19:40.582Z,4.20
2023-05-12T21:22:09.175Z,4.30
2023-05-12T21:24:38.532Z,4.78
2023-05-12T21:27:06.674Z,4.63
2023-05-12T21:29:34.325Z,4.30
2023-05-12T21:32:01.433Z,4.18
2023-05-12T21:34:28.497Z,4.78
2023-05-12T21:36:55.407Z,4.75
2023-05-12T21:39:22.729Z,4.75
2023-05-12T21:41:49.471Z,4.50
2023-05-12T21:44:16.311Z,4.65
2023-05-12T21:46:43.362Z,4.95
2023-05-12T21:49:10.538Z,4.60
2023-05-12T21:51:37.210Z,5.43
2023-05-12T21:54:04.074Z,4.97
2023-05-12T21:56:30.830Z,4.72
2023-05-12T21:58:57.460Z,4.78
2023-05-12T22:01:24.277Z,5.60
2023-05-12T22:03:51.297Z,5.70
2023-05-12T22:06:18.091Z,4.97
2023-05-12T22:08:44.758Z,5.43
2023-05-12T22:11:11.556Z,5.32
2023-05-12T22:13:38.419Z,5.63
2023-05-12T22:16:05.722Z,4.72
2023-05-12T22:18:33.373Z,5.18
2023-05-12T22:21:00.579Z,5.60
2023-05-12T22:23:27.295Z,5.05
2023-05-12T22:25:54.192Z,24.90
2023-05-12T22:28:20.943Z,6.45
2023-05-12T22:30:47.660Z,6.72
2023-05-12T22:33:14.469Z,5.30
2023-05-12T22:35:41.223Z,6.28
2023-05-12T22:38:08.031Z,6.07
2023-05-12T22:40:34.789Z,5.90
2023-05-12T22:43:01.526Z,5.47
2023-05-12T22:45:28.530Z,5.95
2023-05-12T22:47:55.461Z,5.60
2023-05-12T22:50:22.552Z,5.45
2023-05-12T22:52:49.643Z,4.70
2023-05-12T22:55:16.364Z,5.00
2023-05-12T22:57:45.640Z,6.38
2023-05-12T23:00:13.702Z,4.95
2023-05-12T23:02:40.709Z,5.18
2023-05-12T23:05:07.742Z,5.70
2023-05-12T23:07:34.398Z,5.45
2023-05-12T23:10:01.128Z,6.03
2023-05-12T23:12:27.811Z,6.43
2023-05-12T23:14:54.562Z,5.43
2023-05-12T23:17:21.230Z,5.38
2023-05-12T23:19:47.945Z,5.72
2023-05-12T23:22:14.585Z,4.63
2023-05-12T23:24:41.330Z,5.28
2023-05-12T23:27:08.054Z,5.40
2023-05-12T23:29:34.782Z,5.32
